Terminal Aerodrome Forecast
Issued by NWS

Home | Current Version | Previous Version | Text Only | Print | Product List | Glossary On
Versions: 1 2 3 4 5 6 7 8 9 10 11 12 13 14 15 16 17 18 19 20 21
000
FTUS46 KPDT 231721
TAFDLS
TAF
KDLS 231721Z 2318/2418 VRB04KT P6SM SCT007 SCT250
     FM231900 08005KT P6SM SCT250
     FM240000 10004KT P6SM SKC
     FM241200 VRB02KT 6SM BR SCT008=

USA.gov is the U.S. government's official web portal to all federal, state and local government web resources and services.